< < Back
Terminal Aerodrome Forecast


Current Version              Previous Versions:   1  2  3  4  5  6  7  8  9  

Terminal Aerodrome Forecast

213
FTUS42 KMLB 200500
TAFDAB
TAF
KDAB 200539Z 2006/2106 VRB04KT P6SM -RA SCT015 SCT030 OVC100
      TEMPO 2006/2009 BKN030
     FM201400 04005KT P6SM VCSH BKN030 OVC050
     FM201800 34007KT P6SM VCSH SCT030 OVC040
      TEMPO 2018/2021 3SM TSRA BKN025CB
     FM210000 VRB03KT P6SM SCT025 BKN040 BKN080=



Latest METAR

877
SAUS80 KWBC 201200
MTRDAB
METAR KDAB 201153Z 32005KT 5SM -RA BR FEW014 SCT080 OVC100 22/22 A2993
RMK AO2 SLP136 P0003 60012 70110 T02220217 10228 20217
53006


USA.gov is the U.S. government's official web portal to all federal, state and local government web resources and services.